Time;durP1;ratioP1;P1;durP2;ratioP2;P2;SDS_P1;SDS_P2;PMS_P1;PMS_P2;Temp;Humidity;BMP_temperature;BMP_pressure;BME280_temperature;BME280_humidity;BME280_pressure;Samples;Min_cycle;Max_cycle;Signal;HPM_P1;HPM_P2
2022/12/19 00:01:07;;;;;;;44.38;25.20;;;0.30;99.90;;;;;;5025081;28;20128;-82
2022/12/19 00:03:34;;;;;;;42.00;23.83;;;0.30;99.90;;;;;;5018896;28;20115;-84
2022/12/19 00:06:02;;;;;;;45.10;25.90;;;0.30;99.90;;;;;;5039979;28;20049;-82
2022/12/19 00:08:27;;;;;;;46.97;25.38;;;0.30;99.90;;;;;;5038409;28;20030;-83
2022/12/19 00:10:58;;;;;;;45.53;25.80;;;0.50;99.90;;;;;;5026315;28;20045;-80
2022/12/19 00:13:27;;;;;;;46.08;25.33;;;0.60;99.90;;;;;;5072509;28;20057;-80
2022/12/19 00:16:32;;;;;;;44.25;25.70;;;0.50;99.90;;;;;;5035724;28;20162;-82
2022/12/19 00:18:59;;;;;;;48.30;25.95;;;0.50;99.90;;;;;;5053829;28;20128;-80
2022/12/19 00:21:27;;;;;;;49.15;25.33;;;0.60;99.90;;;;;;5022751;28;20091;-81
2022/12/19 00:23:54;;;;;;;51.08;26.40;;;0.40;99.90;;;;;;5046947;28;20571;-82
2022/12/19 00:26:23;;;;;;;46.15;26.40;;;0.50;99.90;;;;;;5029672;28;20037;-81
2022/12/19 00:28:52;;;;;;;44.83;25.77;;;0.50;99.90;;;;;;5031729;28;20042;-81
2022/12/19 00:31:19;;;;;;;43.08;25.42;;;0.70;99.90;;;;;;5032554;28;20036;-81
2022/12/19 00:33:45;;;;;;;47.45;25.88;;;0.50;99.90;;;;;;5052910;28;20044;-82
2022/12/19 00:36:15;;;;;;;47.25;25.73;;;0.70;99.90;;;;;;5040438;28;20480;-82
2022/12/19 00:38:44;;;;;;;47.42;25.38;;;0.70;99.90;;;;;;5065048;28;20052;-82
2022/12/19 00:41:19;;;;;;;46.40;25.25;;;0.80;99.90;;;;;;5069295;28;20099;-80
2022/12/19 00:43:45;;;;;;;46.83;25.80;;;0.70;99.90;;;;;;5033879;28;20045;-80
2022/12/19 00:46:14;;;;;;;45.60;25.92;;;0.80;99.90;;;;;;5024933;28;20452;-81
2022/12/19 00:48:41;;;;;;;47.58;25.95;;;0.80;99.90;;;;;;5050594;28;20036;-82
2022/12/19 00:51:10;;;;;;;53.53;27.30;;;0.80;99.90;;;;;;5033691;28;20037;-80
2022/12/19 00:53:36;;;;;;;46.70;26.50;;;0.70;99.90;;;;;;5038179;28;20526;-83
2022/12/19 00:56:03;;;;;;;48.70;26.65;;;0.80;99.90;;;;;;5036824;28;20049;-82
2022/12/19 00:58:29;;;;;;;46.85;25.63;;;0.90;99.90;;;;;;5063258;28;20041;-82
2022/12/19 01:00:56;;;;;;;45.70;25.25;;;0.90;99.90;;;;;;5041272;28;20197;-81
2022/12/19 01:03:23;;;;;;;46.17;25.27;;;0.90;99.90;;;;;;5021968;28;20052;-82
2022/12/19 01:05:50;;;;;;;49.50;26.80;;;0.70;99.90;;;;;;5028111;28;20055;-81
2022/12/19 01:08:17;;;;;;;45.67;25.77;;;0.80;99.90;;;;;;5039240;28;20048;-82
2022/12/19 01:10:49;;;;;;;47.17;25.88;;;0.70;99.90;;;;;;5039152;28;20029;-83
2022/12/19 01:13:17;;;;;;;48.72;26.65;;;0.80;99.90;;;;;;5042114;28;20040;-82
2022/12/19 01:15:44;;;;;;;48.30;26.60;;;1.00;99.90;;;;;;5051790;28;20167;-79
2022/12/19 01:18:09;;;;;;;44.45;25.38;;;1.10;99.90;;;;;;5031026;28;20489;-82
2022/12/19 01:20:40;;;;;;;49.33;26.55;;;0.90;99.90;;;;;;5020216;28;20068;-82
2022/12/19 01:23:07;;;;;;;49.03;26.45;;;1.10;99.90;;;;;;5030080;28;20080;-80
2022/12/19 01:25:34;;;;;;;48.85;25.55;;;1.10;99.90;;;;;;5043458;28;20143;-80
2022/12/19 01:28:00;;;;;;;45.05;25.30;;;1.00;99.90;;;;;;5038468;28;20033;-82
2022/12/19 01:31:06;;;;;;;44.22;25.00;;;1.00;99.90;;;;;;5020039;28;20055;-83
2022/12/19 01:33:33;;;;;;;49.33;25.05;;;1.00;99.90;;;;;;5015079;28;20065;-80
2022/12/19 01:36:06;;;;;;;48.13;24.40;;;1.10;99.90;;;;;;5039696;28;20037;-81
2022/12/19 01:38:34;;;;;;;45.50;24.17;;;1.00;99.90;;;;;;5053041;28;20051;-82
2022/12/19 01:41:01;;;;;;;49.60;26.05;;;1.00;99.90;;;;;;5008981;28;20499;-82
2022/12/19 01:44:00;;;;;;;48.72;25.50;;;1.00;99.90;;;;;;5039320;28;20555;-83
2022/12/19 01:46:35;;;;;;;45.60;25.63;;;1.10;99.90;;;;;;5041953;28;20049;-82
2022/12/19 01:49:05;;;;;;;43.13;24.35;;;1.10;99.90;;;;;;5059952;28;20045;-82
2022/12/19 01:51:55;;;;;;;44.67;25.20;;;1.30;99.90;;;;;;5045443;28;20041;-82
2022/12/19 01:54:28;;;;;;;45.50;25.40;;;1.10;99.90;;;;;;5040046;28;20472;-81
2022/12/19 01:56:56;;;;;;;45.10;24.80;;;1.40;99.90;;;;;;5037756;28;20046;-80
2022/12/19 01:59:34;;;;;;;46.45;24.95;;;1.30;99.90;;;;;;5023004;28;20041;-82
2022/12/19 02:02:06;;;;;;;44.13;24.83;;;1.40;99.90;;;;;;5043318;28;20142;-81
2022/12/19 02:04:34;;;;;;;44.90;25.52;;;1.50;99.90;;;;;;5041946;28;20069;-82
2022/12/19 02:07:02;;;;;;;46.72;24.83;;;1.50;99.90;;;;;;5038974;28;20784;-80
2022/12/19 02:09:28;;;;;;;47.92;25.70;;;1.30;99.90;;;;;;5035094;28;20111;-81
2022/12/19 02:11:54;;;;;;;46.13;25.48;;;1.50;99.90;;;;;;5020059;28;20095;-82
2022/12/19 02:14:20;;;;;;;47.17;26.02;;;1.30;99.90;;;;;;5024703;28;20032;-80
2022/12/19 02:17:17;;;;;;;49.45;26.70;;;1.30;99.90;;;;;;5032912;28;20395;-82
2022/12/19 02:20:30;;;;;;;49.53;26.40;;;1.50;99.90;;;;;;5017579;28;20053;-82
2022/12/19 02:23:05;;;;;;;54.05;26.75;;;1.30;99.90;;;;;;5058868;28;20045;-81
2022/12/19 02:25:30;;;;;;;54.88;27.60;;;1.40;99.90;;;;;;5042043;28;20048;-83
2022/12/19 02:28:42;;;;;;;56.05;28.13;;;1.50;99.90;;;;;;5036437;28;20045;-81
2022/12/19 02:35:18;;;;;;;61.17;29.15;;;1.60;99.90;;;;;;5035432;28;20109;-82
2022/12/19 02:38:14;;;;;;;55.78;28.95;;;1.20;99.90;;;;;;5040580;28;20396;-81
2022/12/19 02:41:04;;;;;;;71.90;30.10;;;1.40;99.90;;;;;;5033075;28;20061;-83
2022/12/19 02:43:34;;;;;;;53.53;28.23;;;1.30;99.90;;;;;;5063717;28;20431;-82
2022/12/19 02:46:02;;;;;;;60.10;29.77;;;1.40;99.90;;;;;;5033748;28;20047;-81
2022/12/19 02:48:28;;;;;;;56.50;29.33;;;1.50;99.90;;;;;;5033140;28;20081;-82
2022/12/19 02:50:54;;;;;;;61.70;30.70;;;1.20;99.90;;;;;;5017888;28;20239;-82
2022/12/19 02:53:20;;;;;;;62.22;29.95;;;1.60;99.90;;;;;;5032470;28;20037;-81
2022/12/19 02:56:10;;;;;;;66.32;31.05;;;1.60;99.90;;;;;;5051774;28;20076;-83
2022/12/19 02:58:50;;;;;;;61.67;30.67;;;1.70;99.90;;;;;;5045706;28;20049;-82
2022/12/19 03:01:38;;;;;;;62.58;30.50;;;1.40;99.90;;;;;;5047257;28;20047;-81
2022/12/19 03:04:09;;;;;;;66.68;32.17;;;1.50;99.90;;;;;;5049383;28;20042;-79
2022/12/19 03:07:00;;;;;;;61.38;31.30;;;1.40;99.90;;;;;;5068038;28;20047;-80
2022/12/19 03:09:42;;;;;;;66.95;32.72;;;1.40;99.90;;;;;;5031533;28;20108;-82
2022/12/19 03:12:25;;;;;;;61.95;31.33;;;1.60;99.90;;;;;;5015384;28;20111;-82
2022/12/19 03:14:52;;;;;;;61.72;31.17;;;1.60;99.90;;;;;;5049465;28;20136;-82
2022/12/19 03:17:18;;;;;;;63.83;31.02;;;1.60;99.90;;;;;;5020368;28;20050;-82
2022/12/19 03:19:44;;;;;;;64.43;32.13;;;1.60;99.90;;;;;;5021247;28;20445;-82
2022/12/19 03:22:10;;;;;;;61.30;32.33;;;1.60;99.90;;;;;;5055910;28;20049;-82
2022/12/19 03:24:36;;;;;;;66.00;32.33;;;1.80;99.90;;;;;;5054945;28;20056;-81
2022/12/19 03:27:08;;;;;;;68.72;33.53;;;1.70;99.90;;;;;;5044880;28;20045;-82
2022/12/19 03:29:39;;;;;;;67.68;33.10;;;1.50;99.90;;;;;;5037558;28;20536;-81
2022/12/19 03:32:13;;;;;;;66.32;32.60;;;1.50;99.90;;;;;;5049723;28;20468;-80
2022/12/19 03:34:46;;;;;;;62.60;31.75;;;1.90;99.90;;;;;;5036379;28;20055;-82
2022/12/19 03:37:19;;;;;;;68.05;33.42;;;1.90;99.90;;;;;;5026017;28;20072;-82
2022/12/19 03:39:49;;;;;;;64.93;32.42;;;1.60;99.90;;;;;;5048863;28;20054;-81
2022/12/19 03:45:03;;;;;;;69.13;34.05;;;1.90;99.90;;;;;;5040108;28;20037;-82
2022/12/19 03:47:43;;;;;;;67.07;34.53;;;1.70;99.90;;;;;;5035281;28;20040;-80
2022/12/19 03:50:09;;;;;;;69.47;33.13;;;1.70;99.90;;;;;;5038925;28;20485;-81
2022/12/19 03:53:11;;;;;;;71.15;35.00;;;1.70;99.90;;;;;;5048991;28;20519;-80
2022/12/19 03:55:43;;;;;;;70.80;35.35;;;1.60;99.90;;;;;;5030378;28;20044;-83
2022/12/19 03:58:12;;;;;;;71.60;36.20;;;1.70;99.90;;;;;;5039685;28;20431;-80
2022/12/19 04:00:42;;;;;;;77.10;36.45;;;2.10;99.90;;;;;;5034259;28;20065;-80
2022/12/19 04:03:09;;;;;;;80.82;38.45;;;1.70;99.90;;;;;;5047013;28;20052;-82
2022/12/19 04:05:37;;;;;;;79.15;38.72;;;1.80;99.90;;;;;;5019747;28;20487;-81
2022/12/19 04:08:06;;;;;;;78.55;36.75;;;1.90;99.90;;;;;;5042367;28;20033;-81
2022/12/19 04:10:37;;;;;;;88.18;38.17;;;1.90;99.90;;;;;;5022406;28;20045;-83
2022/12/19 04:13:07;;;;;;;76.43;36.67;;;1.90;99.90;;;;;;5052365;28;20072;-84
2022/12/19 04:16:05;;;;;;;85.03;38.88;;;2.20;99.90;;;;;;5043171;28;20072;-82
2022/12/19 04:18:34;;;;;;;86.70;37.80;;;2.30;99.90;;;;;;5009954;28;20246;-82
2022/12/19 04:21:10;;;;;;;82.18;39.42;;;2.30;99.90;;;;;;5024260;28;20124;-82
2022/12/19 04:23:41;;;;;;;86.43;41.28;;;2.30;99.90;;;;;;4995031;28;20096;-82
2022/12/19 04:26:08;;;;;;;82.53;38.60;;;2.30;99.90;;;;;;5026282;28;20048;-81
2022/12/19 04:28:44;;;;;;;81.57;38.90;;;2.10;99.90;;;;;;5014681;28;20360;-81
2022/12/19 04:31:15;;;;;;;79.95;38.78;;;2.00;99.90;;;;;;5006496;28;20037;-80
2022/12/19 04:33:41;;;;;;;82.63;38.10;;;2.40;99.90;;;;;;5011309;28;20087;-81
2022/12/19 04:36:09;;;;;;;86.90;38.60;;;2.40;99.90;;;;;;4975713;28;20422;-83
2022/12/19 04:38:34;;;;;;;88.20;40.00;;;2.10;99.90;;;;;;5011326;28;20053;-81
2022/12/19 04:41:00;;;;;;;83.57;39.03;;;2.20;99.90;;;;;;4993101;28;20038;-79
2022/12/19 04:43:26;;;;;;;80.88;40.10;;;2.10;99.90;;;;;;4967770;28;20092;-80
2022/12/19 04:45:51;;;;;;;80.65;38.85;;;2.10;99.90;;;;;;5026622;28;20044;-82
2022/12/19 04:48:17;;;;;;;83.80;40.97;;;2.30;99.90;;;;;;5024181;28;20077;-82
2022/12/19 04:50:42;;;;;;;82.63;39.70;;;2.60;99.90;;;;;;5021208;28;20542;-83
2022/12/19 04:53:08;;;;;;;85.55;39.55;;;2.20;99.90;;;;;;4989995;28;20044;-82
2022/12/19 04:55:35;;;;;;;91.38;42.58;;;2.50;99.90;;;;;;5046027;28;20124;-82
2022/12/19 04:58:05;;;;;;;88.07;40.75;;;2.20;99.90;;;;;;5021009;28;20499;-81
2022/12/19 05:00:49;;;;;;;87.53;40.90;;;2.60;99.90;;;;;;5037681;28;20051;-81
2022/12/19 05:03:14;;;;;;;83.22;40.63;;;2.40;99.90;;;;;;5057564;28;20085;-82
2022/12/19 05:05:40;;;;;;;85.78;40.45;;;2.60;99.90;;;;;;5019698;28;21914;-82
2022/12/19 05:08:06;;;;;;;94.78;42.97;;;2.30;99.90;;;;;;5030317;28;20037;-82
2022/12/19 05:10:34;;;;;;;87.53;40.80;;;2.60;99.90;;;;;;5047698;28;20045;-82
2022/12/19 05:13:00;;;;;;;91.55;42.85;;;2.40;99.90;;;;;;5014279;28;20083;-83
2022/12/19 05:15:26;;;;;;;91.05;42.10;;;2.60;99.90;;;;;;5054763;28;20442;-81
2022/12/19 05:17:52;;;;;;;92.70;41.30;;;2.60;99.90;;;;;;5038880;28;20057;-82
2022/12/19 05:20:17;;;;;;;88.45;39.83;;;2.70;99.90;;;;;;5044694;28;20112;-81
2022/12/19 05:22:43;;;;;;;86.57;39.95;;;2.80;99.90;;;;;;5042840;28;20419;-83
2022/12/19 05:25:09;;;;;;;87.40;40.97;;;2.40;99.90;;;;;;5039524;28;20043;-83
2022/12/19 05:27:35;;;;;;;87.95;41.28;;;2.60;99.90;;;;;;5042189;28;20051;-81
2022/12/19 05:30:01;;;;;;;82.55;39.35;;;2.40;99.90;;;;;;5021158;28;20041;-82
2022/12/19 05:32:33;;;;;;;84.35;39.88;;;2.40;99.90;;;;;;5023079;28;20041;-81
2022/12/19 05:34:59;;;;;;;94.40;39.88;;;2.50;99.90;;;;;;5067042;28;20052;-82
2022/12/19 05:37:25;;;;;;;91.72;41.47;;;2.80;99.90;;;;;;5032816;28;20044;-82
2022/12/19 05:39:51;;;;;;;91.70;39.20;;;2.50;99.90;;;;;;5033534;28;20053;-82
2022/12/19 05:42:16;;;;;;;84.68;39.65;;;2.70;99.90;;;;;;5034704;28;20064;-83
2022/12/19 05:44:42;;;;;;;84.25;40.53;;;2.80;99.90;;;;;;5034394;28;20042;-82
2022/12/19 05:47:08;;;;;;;80.88;37.90;;;2.60;99.90;;;;;;5023913;28;20041;-82
2022/12/19 05:49:35;;;;;;;85.38;39.78;;;2.70;99.90;;;;;;5066757;28;20041;-84
2022/12/19 05:52:00;;;;;;;81.30;37.42;;;2.90;99.90;;;;;;5019398;28;20033;-81
2022/12/19 05:54:27;;;;;;;88.72;39.80;;;2.90;99.90;;;;;;5024653;28;20038;-82
2022/12/19 05:56:52;;;;;;;93.88;38.92;;;2.60;99.90;;;;;;5041500;28;20366;-83
2022/12/19 05:59:18;;;;;;;76.68;36.35;;;3.00;99.90;;;;;;5037237;28;20079;-83
2022/12/19 06:01:44;;;;;;;81.32;36.72;;;3.10;99.90;;;;;;5031808;28;20111;-83
2022/12/19 06:04:09;;;;;;;73.57;34.90;;;3.00;99.90;;;;;;5050376;28;20145;-81
2022/12/19 06:06:36;;;;;;;71.90;35.25;;;3.00;99.90;;;;;;5041952;28;20037;-83
2022/12/19 06:09:02;;;;;;;64.97;32.35;;;2.90;99.90;;;;;;5044101;28;20045;-83
2022/12/19 06:11:30;;;;;;;71.18;33.47;;;3.00;99.90;;;;;;5037850;28;20110;-82
2022/12/19 06:13:55;;;;;;;63.30;31.70;;;3.20;99.90;;;;;;5034241;28;20112;-80
2022/12/19 06:16:22;;;;;;;63.72;32.00;;;3.40;99.90;;;;;;5075117;28;20373;-83
2022/12/19 06:18:48;;;;;;;63.88;31.35;;;3.30;99.90;;;;;;5036670;28;20553;-81
2022/12/19 06:21:16;;;;;;;68.78;31.77;;;3.20;99.90;;;;;;5021602;28;20128;-82
2022/12/19 06:23:42;;;;;;;66.57;31.98;;;2.90;99.90;;;;;;5016239;28;20116;-82
2022/12/19 06:26:11;;;;;;;62.67;30.35;;;3.00;99.90;;;;;;5067813;28;20037;-84
2022/12/19 06:28:37;;;;;;;73.28;30.90;;;3.20;99.90;;;;;;5041764;28;20040;-83
2022/12/19 06:31:22;;;;;;;68.13;31.33;;;3.10;99.90;;;;;;5022938;28;20041;-82
2022/12/19 06:33:48;;;;;;;64.20;29.85;;;3.10;99.90;;;;;;5043589;28;20037;-83
2022/12/19 06:36:17;;;;;;;65.85;32.40;;;3.20;99.90;;;;;;5036809;28;20522;-79
2022/12/19 06:38:42;;;;;;;69.72;30.30;;;3.10;99.90;;;;;;5027280;28;20096;-82
2022/12/19 06:43:57;;;;;;;65.07;28.80;;;3.40;99.90;;;;;;5038811;28;20060;-81
2022/12/19 06:46:42;;;;;;;64.07;28.27;;;3.40;99.90;;;;;;5032033;28;20436;-84
2022/12/19 06:49:08;;;;;;;60.77;28.33;;;3.50;99.90;;;;;;5040133;28;20037;-82
2022/12/19 06:51:33;;;;;;;58.67;27.52;;;3.50;99.90;;;;;;5026608;28;20303;-82
2022/12/19 06:53:59;;;;;;;50.97;25.83;;;3.60;99.90;;;;;;5032994;28;20107;-81
2022/12/19 06:56:25;;;;;;;49.63;24.55;;;3.60;99.90;;;;;;5045946;28;20044;-83
2022/12/19 06:58:54;;;;;;;52.40;24.42;;;3.70;99.90;;;;;;5027651;28;20409;-82
2022/12/19 07:02:13;;;;;;;49.05;24.67;;;3.60;99.90;;;;;;5055626;28;20038;-83
2022/12/19 07:04:46;;;;;;;47.40;24.27;;;3.70;99.90;;;;;;5043673;28;20468;-83
2022/12/19 07:07:12;;;;;;;50.35;24.25;;;3.60;99.90;;;;;;5036002;28;20421;-83
2022/12/19 07:09:38;;;;;;;48.20;22.70;;;3.80;99.90;;;;;;5040326;28;20054;-81
2022/12/19 07:12:04;;;;;;;45.22;23.40;;;3.90;99.90;;;;;;5051011;28;20037;-87
2022/12/19 07:14:32;;;;;;;43.25;23.23;;;3.80;99.90;;;;;;5034916;28;20056;-82
2022/12/19 07:17:00;;;;;;;43.45;22.30;;;3.70;99.90;;;;;;5037392;28;20053;-81
2022/12/19 07:19:27;;;;;;;43.55;22.52;;;3.90;99.90;;;;;;5041062;28;20488;-82
2022/12/19 07:21:54;;;;;;;48.45;23.60;;;3.80;99.90;;;;;;5055375;28;20052;-82
2022/12/19 07:24:20;;;;;;;47.53;23.02;;;3.80;99.90;;;;;;5039569;28;20124;-81
2022/12/19 07:26:46;;;;;;;41.58;22.83;;;3.70;99.90;;;;;;5043708;28;20178;-84
2022/12/19 07:29:14;;;;;;;45.00;23.20;;;3.80;99.90;;;;;;5040878;28;20045;-82
2022/12/19 07:31:40;;;;;;;45.40;23.38;;;3.70;99.90;;;;;;5067221;28;20045;-81
2022/12/19 07:34:06;;;;;;;43.40;23.17;;;3.70;99.90;;;;;;5021435;28;20222;-82
2022/12/19 07:36:31;;;;;;;44.20;22.48;;;4.00;99.90;;;;;;5068124;28;20044;-82
2022/12/19 07:38:57;;;;;;;50.20;23.30;;;4.00;99.90;;;;;;5038716;28;20657;-84
2022/12/19 07:41:22;;;;;;;46.20;22.73;;;3.90;99.90;;;;;;5021356;28;20053;-82
2022/12/19 07:43:48;;;;;;;46.90;23.70;;;4.00;99.90;;;;;;5047280;28;20091;-82
2022/12/19 07:46:33;;;;;;;45.13;22.85;;;4.10;99.90;;;;;;5045581;28;20424;-82
2022/12/19 07:48:58;;;;;;;40.50;20.63;;;3.90;99.90;;;;;;5073633;28;20042;-81
2022/12/19 07:51:24;;;;;;;41.00;21.27;;;3.80;99.90;;;;;;5040872;28;20086;-80
2022/12/19 07:53:50;;;;;;;42.15;21.55;;;3.90;99.90;;;;;;5026503;28;20131;-80
2022/12/19 07:56:19;;;;;;;42.17;21.40;;;4.00;99.90;;;;;;5037010;28;20123;-80
2022/12/19 07:58:44;;;;;;;41.08;22.00;;;4.30;99.90;;;;;;5039801;28;20048;-82
2022/12/19 08:01:11;;;;;;;43.40;21.80;;;4.10;99.90;;;;;;5052894;28;20047;-81
2022/12/19 08:03:37;;;;;;;43.05;22.85;;;4.00;99.90;;;;;;5036416;28;20061;-82
2022/12/19 08:06:05;;;;;;;41.42;22.38;;;4.10;99.90;;;;;;5042893;28;20079;-81
2022/12/19 08:08:31;;;;;;;43.03;21.40;;;4.10;99.90;;;;;;5029662;28;20068;-82
2022/12/19 08:11:21;;;;;;;40.08;21.45;;;4.20;99.90;;;;;;5042574;28;20065;-83
2022/12/19 08:13:47;;;;;;;42.60;22.00;;;4.40;99.90;;;;;;5033841;28;20046;-79
2022/12/19 08:16:32;;;;;;;48.47;22.58;;;4.40;99.90;;;;;;5024729;28;20397;-82
2022/12/19 08:18:57;;;;;;;42.00;21.58;;;4.40;99.90;;;;;;5019867;28;20068;-83
2022/12/19 08:21:24;;;;;;;41.40;22.02;;;4.10;99.90;;;;;;5041717;28;20045;-80
2022/12/19 08:23:49;;;;;;;43.83;22.10;;;4.20;99.90;;;;;;5047612;28;20137;-81
2022/12/19 08:26:23;;;;;;;39.75;21.10;;;4.30;99.90;;;;;;5035526;28;20136;-81
2022/12/19 08:28:51;;;;;;;41.47;22.50;;;4.40;99.90;;;;;;5036248;28;20468;-83
2022/12/19 08:31:18;;;;;;;46.45;22.45;;;4.40;99.90;;;;;;5019966;28;20033;-82
2022/12/19 08:33:46;;;;;;;41.03;22.73;;;4.50;99.90;;;;;;5032490;28;20041;-85
2022/12/19 08:36:14;;;;;;;35.90;20.90;;;4.50;99.90;;;;;;5020196;28;20055;-82
2022/12/19 08:38:40;;;;;;;39.22;21.27;;;4.60;99.90;;;;;;5035810;28;20140;-81
2022/12/19 08:41:06;;;;;;;41.42;21.98;;;4.50;99.90;;;;;;5037400;28;20132;-79
2022/12/19 08:43:32;;;;;;;38.22;20.40;;;4.60;99.90;;;;;;5039107;28;20050;-81
2022/12/19 08:45:58;;;;;;;41.08;21.42;;;4.50;99.90;;;;;;5014451;28;20485;-83
2022/12/19 08:48:24;;;;;;;36.47;20.02;;;4.70;99.90;;;;;;5050370;28;20041;-84
2022/12/19 08:50:58;;;;;;;41.75;20.85;;;4.70;99.90;;;;;;5036687;28;20036;-82
2022/12/19 08:53:28;;;;;;;38.70;20.87;;;4.50;99.90;;;;;;5019248;28;20052;-81
2022/12/19 08:55:58;;;;;;;40.30;21.08;;;4.60;99.90;;;;;;4997265;28;20058;-82
2022/12/19 08:58:25;;;;;;;39.05;20.80;;;4.60;99.90;;;;;;5033060;28;20068;-82
2022/12/19 09:00:55;;;;;;;39.53;21.15;;;4.60;99.90;;;;;;5034729;28;20053;-79
2022/12/19 09:03:21;;;;;;;41.00;21.52;;;4.80;99.90;;;;;;5046636;28;20049;-81
2022/12/19 09:06:01;;;;;;;36.90;20.85;;;4.70;99.90;;;;;;5046676;28;20052;-83
2022/12/19 09:08:28;;;;;;;36.20;20.33;;;4.80;99.90;;;;;;5045584;28;20405;-80
2022/12/19 09:11:02;;;;;;;37.95;21.65;;;5.00;99.90;;;;;;5043893;28;20456;-80
2022/12/19 09:13:28;;;;;;;37.00;21.00;;;4.80;99.90;;;;;;5050672;28;20045;-79
2022/12/19 09:16:13;;;;;;;35.28;21.48;;;5.00;99.90;;;;;;5045815;28;20059;-80
2022/12/19 09:19:17;;;;;;;37.35;21.30;;;4.90;99.90;;;;;;5065564;28;20136;-80
2022/12/19 09:21:43;;;;;;;37.47;20.58;;;4.90;99.90;;;;;;5048019;28;20086;-81
2022/12/19 09:24:09;;;;;;;43.63;22.10;;;5.10;99.90;;;;;;5042025;28;20036;-79
2022/12/19 09:26:40;;;;;;;37.55;21.58;;;5.30;99.90;;;;;;5047809;28;20149;-81
2022/12/19 09:29:07;;;;;;;35.95;21.15;;;5.20;99.90;;;;;;5042243;28;20377;-82
2022/12/19 09:31:33;;;;;;;34.88;20.90;;;5.40;99.90;;;;;;5076719;28;20049;-82
2022/12/19 09:33:58;;;;;;;36.53;22.13;;;5.20;99.90;;;;;;5043528;28;20460;-81
2022/12/19 09:36:24;;;;;;;39.03;22.95;;;5.30;99.90;;;;;;5046413;28;20061;-81
2022/12/19 09:38:53;;;;;;;37.35;22.70;;;5.30;99.90;;;;;;5022474;28;20038;-81
2022/12/19 09:41:55;;;;;;;40.78;22.75;;;5.30;99.90;;;;;;5033564;28;20051;-80
2022/12/19 09:44:24;;;;;;;39.67;23.48;;;5.70;99.90;;;;;;5040682;28;20049;-80
2022/12/19 09:46:58;;;;;;;41.97;23.85;;;5.40;99.90;;;;;;5038043;28;20492;-81
2022/12/19 09:49:27;;;;;;;39.53;21.90;;;5.70;99.90;;;;;;5040070;28;20255;-82
2022/12/19 09:52:09;;;;;;;36.88;22.60;;;5.80;99.90;;;;;;5046367;28;20112;-84
2022/12/19 09:54:59;;;;;;;35.65;22.45;;;5.80;99.90;;;;;;5054339;28;20074;-80
2022/12/19 09:57:45;;;;;;;46.42;25.00;;;5.90;99.90;;;;;;5044254;28;20037;-81
2022/12/19 10:00:13;;;;;;;39.50;23.88;;;5.70;99.90;;;;;;5040284;28;20048;-81
2022/12/19 10:02:42;;;;;;;41.20;24.40;;;6.10;99.90;;;;;;5044927;28;20045;-81
2022/12/19 10:05:21;;;;;;;43.85;24.58;;;6.00;99.90;;;;;;5038886;28;21049;-81
2022/12/19 10:07:47;;;;;;;40.17;23.92;;;6.00;99.90;;;;;;5048861;28;20041;-81
2022/12/19 10:10:16;;;;;;;40.45;24.50;;;6.00;99.90;;;;;;5038817;28;20507;-82
2022/12/19 10:12:52;;;;;;;42.33;25.58;;;6.10;99.90;;;;;;5015311;28;20033;-82
2022/12/19 10:15:36;;;;;;;37.08;23.42;;;6.30;99.90;;;;;;5055681;28;20073;-81
2022/12/19 10:18:35;;;;;;;36.30;22.52;;;6.20;99.90;;;;;;5031777;28;20046;-81
2022/12/19 10:21:34;;;;;;;38.55;23.88;;;6.40;99.90;;;;;;5037579;28;20409;-81
2022/12/19 10:24:25;;;;;;;33.88;21.77;;;6.50;99.90;;;;;;5033773;28;20526;-82
2022/12/19 10:26:54;;;;;;;31.20;19.35;;;6.50;99.90;;;;;;5063573;28;20045;-81
2022/12/19 10:29:33;;;;;;;35.88;22.92;;;6.70;99.90;;;;;;5030527;28;20037;-82
2022/12/19 10:32:14;;;;;;;36.03;22.52;;;6.40;99.90;;;;;;5031983;28;20392;-82
2022/12/19 10:34:42;;;;;;;30.17;21.02;;;6.40;99.90;;;;;;5035657;28;20042;-82
2022/12/19 10:37:26;;;;;;;34.13;22.70;;;6.60;99.90;;;;;;5043236;28;20053;-81
2022/12/19 10:40:10;;;;;;;35.80;21.95;;;6.70;99.90;;;;;;5044406;28;20060;-81
2022/12/19 10:42:45;;;;;;;34.70;20.98;;;6.80;99.90;;;;;;5027764;28;20048;-80
2022/12/19 10:45:17;;;;;;;31.85;20.70;;;6.50;99.90;;;;;;5042031;28;20041;-81
2022/12/19 10:47:49;;;;;;;34.10;21.25;;;6.60;99.90;;;;;;5020693;28;20061;-81
2022/12/19 10:50:27;;;;;;;31.90;20.58;;;6.60;99.90;;;;;;5017927;28;20139;-80
2022/12/19 10:52:54;;;;;;;34.58;19.73;;;6.80;99.90;;;;;;5062735;28;20988;-80
2022/12/19 10:55:47;;;;;;;33.55;20.88;;;6.70;99.90;;;;;;5029337;28;20124;-84
2022/12/19 10:58:20;;;;;;;35.47;20.50;;;6.70;99.90;;;;;;5032644;28;20420;-83
2022/12/19 11:01:24;;;;;;;36.47;21.27;;;6.80;99.90;;;;;;5032132;28;20057;-84
2022/12/19 11:04:24;;;;;;;30.70;19.08;;;6.90;99.90;;;;;;5019940;28;20052;-84
2022/12/19 11:06:54;;;;;;;28.05;18.65;;;7.10;99.90;;;;;;5022260;28;22238;-81
2022/12/19 11:09:50;;;;;;;26.30;17.98;;;7.20;99.90;;;;;;5019820;28;20056;-82
2022/12/19 11:12:18;;;;;;;27.45;17.67;;;7.10;99.90;;;;;;5031721;28;20045;-82
2022/12/19 11:14:52;;;;;;;27.73;17.70;;;7.20;99.90;;;;;;5063179;28;20068;-83
2022/12/19 11:17:43;;;;;;;26.15;16.88;;;7.00;99.90;;;;;;5015333;28;20132;-83
2022/12/19 11:20:18;;;;;;;24.88;16.27;;;7.20;99.90;;;;;;5031376;28;20140;-82
2022/12/19 11:22:54;;;;;;;25.08;15.95;;;7.10;99.90;;;;;;5037871;28;20404;-81
2022/12/19 11:25:22;;;;;;;25.73;16.85;;;7.20;99.90;;;;;;5034098;28;20044;-83
2022/12/19 11:27:48;;;;;;;22.08;15.52;;;7.00;99.90;;;;;;5037435;28;20498;-81
2022/12/19 11:30:27;;;;;;;29.38;16.30;;;7.30;99.90;;;;;;5035537;28;20033;-82
2022/12/19 11:33:12;;;;;;;28.33;16.25;;;7.20;99.90;;;;;;5033739;28;20617;-82
2022/12/19 11:35:49;;;;;;;24.05;14.65;;;7.50;99.90;;;;;;5024150;28;20357;-81
2022/12/19 11:38:37;;;;;;;25.13;15.32;;;7.50;99.90;;;;;;5031884;28;20041;-82
2022/12/19 11:41:19;;;;;;;25.92;15.80;;;7.50;99.90;;;;;;5030171;28;20045;-82
2022/12/19 11:44:02;;;;;;;22.48;14.10;;;7.40;99.90;;;;;;5034879;28;20136;-81
2022/12/19 11:46:33;;;;;;;20.90;14.27;;;7.50;99.90;;;;;;5036594;28;20068;-81
2022/12/19 11:49:24;;;;;;;25.55;15.50;;;7.40;99.90;;;;;;5032917;28;20029;-81
2022/12/19 11:52:13;;;;;;;26.98;15.18;;;7.70;99.90;;;;;;5033459;28;20050;-82
2022/12/19 11:55:03;;;;;;;22.90;15.20;;;7.70;99.90;;;;;;5034291;28;20033;-82
2022/12/19 11:57:28;;;;;;;26.05;15.85;;;7.50;99.90;;;;;;5030387;28;20100;-80
2022/12/19 11:59:54;;;;;;;24.95;15.57;;;7.90;99.90;;;;;;5032586;28;20048;-82
2022/12/19 12:02:46;;;;;;;26.38;15.55;;;7.40;99.90;;;;;;5034520;28;20033;-80
2022/12/19 12:05:50;;;;;;;19.48;14.02;;;7.80;99.90;;;;;;5042016;28;20411;-81
2022/12/19 12:08:34;;;;;;;20.15;14.00;;;7.40;99.90;;;;;;5059374;28;20041;-80
2022/12/19 12:11:07;;;;;;;26.38;14.80;;;7.70;99.90;;;;;;5034954;28;20041;-80
2022/12/19 12:14:02;;;;;;;17.60;12.48;;;7.60;99.90;;;;;;5041697;28;20037;-80
2022/12/19 12:16:43;;;;;;;22.03;14.10;;;7.90;99.90;;;;;;5050066;28;20045;-81
2022/12/19 12:19:47;;;;;;;22.10;13.93;;;7.90;99.90;;;;;;5032044;28;20316;-81
2022/12/19 12:22:41;;;;;;;18.73;13.70;;;7.80;99.90;;;;;;5025509;28;20143;-81
2022/12/19 12:25:19;;;;;;;19.58;13.95;;;7.50;99.90;;;;;;5064820;28;20059;-82
2022/12/19 12:27:53;;;;;;;20.00;13.02;;;7.60;99.90;;;;;;5035035;28;20111;-81
2022/12/19 12:30:20;;;;;;;19.30;11.88;;;8.00;99.90;;;;;;5034692;28;20041;-83
2022/12/19 12:32:55;;;;;;;20.60;13.98;;;8.10;99.90;;;;;;5037787;28;20108;-82
2022/12/19 12:35:32;;;;;;;24.50;14.65;;;8.00;99.90;;;;;;5050869;28;20067;-81
2022/12/19 12:38:07;;;;;;;25.58;14.65;;;7.80;99.90;;;;;;5068516;28;20053;-83
2022/12/19 12:40:54;;;;;;;19.90;13.82;;;7.80;99.90;;;;;;5062496;28;20060;-82
2022/12/19 12:43:42;;;;;;;20.67;14.25;;;8.00;99.90;;;;;;5043574;28;20053;-84
2022/12/19 12:46:18;;;;;;;20.20;14.38;;;8.00;99.90;;;;;;5044414;28;20052;-83
2022/12/19 12:52:33;;;;;;;21.20;14.13;;;7.80;99.90;;;;;;5033174;28;20067;-82
2022/12/19 12:55:00;;;;;;;19.67;12.68;;;7.90;99.90;;;;;;5045240;28;20362;-85
2022/12/19 12:57:25;;;;;;;20.67;13.30;;;7.70;99.90;;;;;;5040683;28;20050;-84
2022/12/19 13:00:14;;;;;;;20.92;13.45;;;7.80;99.90;;;;;;5042618;28;20059;-82
2022/12/19 13:02:41;;;;;;;19.30;12.55;;;7.80;99.90;;;;;;5044963;28;20103;-85
2022/12/19 13:05:44;;;;;;;21.60;11.93;;;7.80;99.90;;;;;;5042399;28;20132;-83
2022/12/19 13:08:36;;;;;;;24.77;12.30;;;8.00;99.90;;;;;;5026216;28;20050;-84
2022/12/19 13:14:35;;;;;;;15.20;11.50;;;7.80;99.90;;;;;;5041134;28;20057;-83
2022/12/19 13:17:08;;;;;;;18.55;11.70;;;7.80;99.90;;;;;;5032876;28;20045;-82
2022/12/19 13:19:38;;;;;;;32.67;12.45;;;7.80;99.90;;;;;;5033027;28;20067;-81
2022/12/19 13:22:04;;;;;;;19.13;12.45;;;7.80;99.90;;;;;;5021058;28;20128;-85